Tiempo atmosférico en la estación meteorológica de Aranda De Duero, Burgos (790 m.)



Fecha
DESCASC
Temp. máxima en grados centígrados (hora)
DESCASC
Temp. mínima en grados centígrados (hora)
DESCASC
Temp. media en grados centígrados
DESCASC
Racha de viento máxima en m/sg (hora)
DESCASC
Velocidad máxima media en intervalos de 10 minutos(hora)
DESCASC
Precipitaciones diarias en mm
DESCASC
Precipitaciones de 00:00 a 06:00 en mm
DESCASC
Precipitaciones de 06:00 a 12:00 en mm
DESCASC
Precipitaciones de 12:00 a 18:00 en mm
DESCASC
Precipitaciones de 18:00 a 24:00 en mm
DESCASC
06-12-2018 8 (13:20) 0.5 (06:30) 4.3 3.89 (23:30) 2.22 (23:30) 0 0 0 0 0
05-12-2018 15.4 (15:40) 0.8 (08:30) 8.1 7.78 (16:00) 3.06 (16:00) 0 0 0 0 0
04-12-2018 15.9 (15:40) 3.9 (23:59) 9.9 7.22 (11:10) 3.61 (11:20) 0 0 0 0 0
03-12-2018 13.1 (15:50) 2.7 (00:00) 7.9 6.39 (03:20) 3.33 (03:10) 0 0 0 0 0
02-12-2018 12.1 (16:30) 2.6 (00:00) 7.4 8.06 (15:10) 4.44 (00:50) 0 0 0 0 0
01-12-2018 9.8 (15:30) -0.4 (00:00) 4.7 9.17 (14:20) 3.89 (14:20) 0 0 0 0 0
30-11-2018 8.7 (15:50) -0.4 (00:00) 4.1 4.44 (15:50) 1.94 (06:00) 0 0 0 0 0
29-11-2018 12.6 (15:10) -3 (-00:0) 4.8 7.78 (12:10) 3.89 (12:10) 8.6 0 0 0.6 8
28-11-2018 12.7 (16:00) -1.7 (-00:0) 5.5 5.83 (14:10) 3.33 (14:30) 0 0 0 0 0
27-11-2018 10.2 (15:50) -1 (-00:0) 4.6 4.72 (05:10) 2.5 (16:50) 0 0 0 0 0
26-11-2018 10.2 (16:30) 1.8 (23:59) 6 18.06 (04:10) 7.5 (03:40) 1 1 0 0 0
25-11-2018 11.5 (15:30) 5.5 (00:00) 8.5 12.78 (04:30) 6.67 (04:30) 5.8 1.2 0.4 0 4.2
24-11-2018 10.9 (15:30) 2.9 (00:00) 6.9 9.17 (13:30) 4.72 (13:40) 0 0 0 0 0
23-11-2018 9.7 (13:10) 2.6 (00:00) 6.1 10.56 (13:40) 5 (12:20) 6 5 1 0 0
22-11-2018 10.9 (14:30) 3 (00:00) 6.9 7.78 (13:40) 4.44 (13:40) 0 0 0 0 0
21-11-2018 11.3 (15:30) 3.7 (00:00) 7.5 12.22 (16:10) 6.11 (16:10) 0 0 0 0 0
20-11-2018 10.9 (13:20) 6.9 (00:00) 8.9 13.06 (14:20) 6.39 (14:20) 4 0 3.4 0.6 0
19-11-2018 11.6 (15:40) 6.9 (00:00) 9.3 11.11 (01:40) 4.72 (02:40) 0 0 0 0 0
18-11-2018 13.6 (14:10) 3.7 (00:00) 8.7 13.89 (21:20) 5.83 (22:30) 0.4 0 0 0 0.4
17-11-2018 16.6 (16:00) 5.7 (00:00) 11.2 8.33 (01:40) 4.17 (01:40) 0 0 0 0 0
16-11-2018 15.5 (12:40) 8.9 (00:00) 12.2 9.17 (10:30) 4.44 (10:30) 8.6 0 0 8.6 0
15-11-2018 15.4 (13:30) 7.7 (00:00) 11.5 8.61 (11:30) 4.44 (13:40) 0 0 0 0 0
14-11-2018 16.2 (16:20) 7 (00:00) 11.6 10.56 (07:40) 4.72 (12:20) 0 0 0 0 0
13-11-2018 15.3 (16:40) 3.8 (00:00) 9.6 7.78 (15:10) 3.89 (14:00) 0 0 0 0 0
12-11-2018 13.3 (15:40) 8.5 (00:00) 10.9 7.78 (00:30) 3.89 (00:30) 0.6 0 0.6 0 0
11-11-2018 13.8 (13:30) 8.3 (00:00) 11.1 8.33 (05:50) 4.17 (05:40) 1 0.2 0 0.8 0
10-11-2018 13.3 (13:10) 8.9 (00:00) 11.1 14.17 (16:10) 6.11 (09:00) 2 0 0 2 0
09-11-2018 9.8 (23:59) 4.6 (00:00) 7.2 10.83 (23:20) 4.44 (23:50) 0 0 0 0 0

Gráficas

Temp. máximas Temp. mínimas Temp. medias Precipitaciones Rachas de viento máximas Velocidades máximas media en intervalos de 10 minutos

Datos horarios

Fecha y hora oficial Temperatura (ºC) Velocidad del viento (km/h) Dirección del viento Racha (km/h) Dirección de racha Precipitación (mm) Presión (hPa) Tendencia (hPa) Humedad (%)
2018-12-08 23:00:00 1.3 2 Este 5 Este 0 939.4 0.6 83
2018-12-08 22:00:00 1.9 2 Este 6 Este 0 939.3 1.1 83
2018-12-08 21:00:00 2.9 0 Calma 4 Este 0 939.1 0.9 80
2018-12-08 20:00:00 4.1 3 Este 5 Este 0 938.8 0.7 78
2018-12-08 19:00:00 6 0 Calma 4 Sudoeste 0 938.2 0.3 72
2018-12-08 18:00:00 9.1 2 Norte 12 Oeste 0 938.2 -0.1 64
2018-12-08 17:00:00 10.8 4 Oeste 13 Oeste 0 938.1 -0.6 56
2018-12-08 16:00:00 10.9 6 Oeste 16 Oeste 0 937.9 -1 53
2018-12-08 15:00:00 11 7 Oeste 19 Oeste 0 938.3 -1.7 56
2018-12-08 14:00:00 11 10 Oeste 27 Oeste 0 938.7 -1.2 58
2018-12-08 13:00:00 9.4 12 Sudoeste 25 Oeste 0 938.9 -0.3 67
2018-12-08 12:00:00 8 6 Oeste 17 Noroeste 0 940 2.1 71
2018-12-08 11:00:00 6 5 Sudoeste 14 Oeste 0 939.9 2.2 79
2018-12-08 10:00:00 5.2 4 Oeste 13 Noroeste 0 939.2 1.5 84
2018-12-08 09:00:00 4.5 3 Noroeste 10 Oeste 0 937.9 1.1 83
2018-12-08 08:00:00 5.9 4 Oeste 15 Oeste 0 937.7 0.9 82
2018-12-08 07:00:00 7.2 4 Oeste 20 Oeste 0 937.7 1 83
2018-12-08 06:00:00 7.3 5 Oeste 17 Oeste 0 936.8 0 83
2018-12-08 05:00:00 7.7 6 Oeste 15 Oeste 0 936.8 0 84
2018-12-08 04:00:00 8 7 Oeste 17 Oeste 0 936.7 -0.4 83
2018-12-08 03:00:00 8.1 7 Oeste 16 Oeste 0 936.8 -0.5 84
2018-12-08 02:00:00 8.1 4 Oeste 14 Oeste 0 936.8 -0.2 84
2018-12-08 01:00:00 8 6 Oeste 19 Oeste 0 937.1 -0.2 85
2018-12-08 00:00:00 8 7 Oeste 18 Oeste 0 937.3 0.1 84
2018-12-07 23:00:00 8 7 Sudoeste 14 Sudoeste 0 937 0.1 84
2018-12-07 22:00:00 7.9 4 Sudoeste 18 Oeste 0 937.3 0.9 83
2018-12-07 21:00:00 7.9 5 Oeste 13 Oeste 0 937.2 1.5 81
2018-12-07 20:00:00 7.7 3 Oeste 14 Noroeste 0 936.9 1.4 81
2018-12-07 19:00:00 8.1 6 Noroeste 23 Oeste 0 936.4 1.3 78
2018-12-07 18:00:00 10.1 6 Oeste 25 Oeste 0 935.7 0.6 72
2018-12-07 17:00:00 11.3 9 Oeste 24 Oeste 0 935.5 -0.3 67
2018-12-07 16:00:00 12 9 Oeste 37 Oeste 0 935.1 -1.3 65
2018-12-07 15:00:00 11.8 12 Oeste 27 Oeste 0 935.1 -2 66
2018-12-07 14:00:00 11 13 Oeste 28 Oeste 0 935.8 -2.1 68
2018-12-07 13:00:00 9.7 15 Sudoeste 29 Oeste 0 936.4 -1.4 72
2018-12-07 12:00:00 7.6 9 Oeste 27 Oeste 0 937.1 0.1 78
2018-12-07 11:00:00 5.9 10 Oeste 23 Oeste 0 937.9 1.3 84
2018-12-07 10:00:00 5.4 9 Sudoeste 27 Oeste 0 937.8 1.2 86
2018-12-07 09:00:00 5.8 9 Oeste 20 Oeste 0 937 0.4 87
2018-12-07 08:00:00 5.4 3 Oeste 10 Oeste 0 936.6 -0.3 87
2018-12-07 07:00:00 5.2 0 Calma 10 Noroeste 0 936.6 -0.6 86
2018-12-07 06:00:00 5.1 5 Noroeste 11 Noroeste 0 936.6 -0.7 86
2018-12-07 05:00:00 5.3 2 Oeste 6 Oeste 0 936.9 -0.9 85
2018-12-07 04:00:00 5.4 2 Oeste 10 Noroeste 0 937.2 -0.9 84
2018-12-07 03:00:00 5.5 3 Noroeste 11 Oeste 0 937.3 -0.8 83
2018-12-07 02:00:00 5.9 3 Oeste 18 Sudoeste 0 937.8 -0.3 81
2018-12-07 01:00:00 6.5 3 Oeste 14 Sudoeste 0 938.1 -0.3 81
2018-12-07 00:00:00 6.7 5 Sudoeste 14 Sudoeste 0 938.1 -0.3 80
2018-12-06 23:00:00 6.9 7 Sudoeste 11 Sudoeste 0 938.1 -0.3 82
2018-12-06 22:00:00 7.2 4 Sudoeste 10 Sudoeste 0 938.4 0.2 85
2018-12-06 21:00:00 7.5 4 Sudoeste 8 Sudoeste 0 938.4 0.4 85
2018-12-06 20:00:00 7.5 2 Sudoeste 6 Norte 0 938.4 0.6 85
2018-12-06 19:00:00 7.5 3 Noroeste 10 Noroeste 0 938.2 0.2 85
2018-12-06 18:00:00 7.6 5 Norte 9 Norte 0 938 -0.1 85
2018-12-06 17:00:00 7.9 5 Noroeste 12 Noroeste 0 937.8 -0.7 84
2018-12-06 16:00:00 7.9 4 Noroeste 12 Noroeste 0 938 -0.8 85
2018-12-06 15:00:00 7.7 4 Noroeste 13 Norte 0 938.1 -1.3 86
2018-12-06 14:00:00 7.8 5 Noroeste 12 Noroeste 0 938.5 -0.5 87
2018-12-06 13:00:00 7.8 4 Oeste 12 Oeste 0 938.8 -0.1 89
2018-12-06 12:00:00 7.4 3 Noroeste 8 Noroeste 0 939.4 0.8 89
2018-12-06 11:00:00 6.5 0 Calma 5 Noroeste 0 939 1 89
2018-12-06 10:00:00 5 0 Calma 6 Este 0 938.9 1.7 89
2018-12-06 09:00:00 4 2 Este 5 Este 0 938.6 1.2 88
2018-12-06 08:00:00 2.8 0 Calma 5 Nordeste 0 938 0.3 88
2018-12-06 07:00:00 1.4 3 Este 5 Este 0 937.2 -0.5 88
2018-12-06 06:00:00 0.9 3 Nordeste 6 Este 0 937.4 -0.1 87
2018-12-06 05:00:00 1.3 0 Calma 7 Este 0 937.7 0.5 87
2018-12-06 04:00:00 1.5 3 Nordeste 9 Este 0 937.7 0.2 87
2018-12-06 03:00:00 1.9 3 Este 6 Este 0 937.5 -0.1 86
2018-12-06 02:00:00 2.7 0 Calma 6 Nordeste 0 937.2 0 86
2018-12-06 01:00:00 3.3 3 Norte 7 Norte 0 937.5 0.5 86
2018-12-06 00:00:00 3.1 2 Sudeste 4 Nordeste 0 937.6 0.9 85
2018-12-05 23:00:00 3.7 2 Nordeste 7 Sudoeste 0 937.2 1.1 84
2018-12-05 22:00:00 4.8 0 Calma 11 Sudoeste 0 937 1.7 82
2018-12-05 21:00:00 6.3 3 Sur 12 Sudoeste 0 936.7 2.7 79
2018-12-05 20:00:00 7.8 6 Sudoeste 12 Oeste 0 936.1 1.8 76
2018-12-05 19:00:00 8.9 4 Oeste 10 Noroeste 0 935.3 0.6 73
2018-12-05 18:00:00 11.9 5 Oeste 14 Sur 0 934 -0.5 64
2018-12-05 17:00:00 14.8 8 Sudoeste 22 Oeste 0 934.3 -0.8 54
2018-12-05 16:00:00 15 11 Noroeste 28 Noroeste 0 934.7 -0.6 55
2018-12-05 15:00:00 14.7 6 Oeste 18 Oeste 0 934.5 -0.9 55
2018-12-05 14:00:00 13.4 6 Oeste 18 Oeste 0 935.1 -0.2 58
2018-12-05 13:00:00 11.4 5 Sudoeste 11 Sudoeste 0 935.3 0.3 70
2018-12-05 12:00:00 8.8 0 Calma 6 Sudeste 0 935.4 1 76
2018-12-05 11:00:00 6 3 Sudeste 9 Este 0 935.3 1.3 88
2018-12-05 10:00:00 3.4 5 Sudeste 12 Sudeste 0 935 1.2 89
2018-12-05 09:00:00 1.3 3 Este 7 Este 0 934.4 0.9 88
2018-12-05 08:00:00 1.3 2 Este 8 Este 0 934 0.5 88
2018-12-05 07:00:00 1.9 4 Este 10 Sudeste 0 933.8 0.2 88
2018-12-05 06:00:00 2.1 2 Este 8 Este 0 933.5 0 88
2018-12-05 05:00:00 1.9 5 Este 8 Este 0 933.5 0.2 87
2018-12-05 04:00:00 1.7 0 Calma -- -- 0 933.6 0 87
2018-12-05 03:00:00 2.5 3 Este 8 Este 0 933.5 -0.1 87
2018-12-05 02:00:00 3 2 Este 5 Este 0 933.3 -0.2 86
2018-12-05 01:00:00 3.7 2 Este 8 Este 0 933.6 0.5 87
2018-12-05 00:00:00 3.9 3 Sudeste 5 Sudeste 0 933.6 0.7 85
2018-12-04 23:00:00 4.6 0 Calma 4 Este 0 933.5 0.9 85
2018-12-04 22:00:00 5.4 0 Calma 5 Este 0 933.1 0.8 84
2018-12-04 21:00:00 6.7 0 Calma 5 Este 0 932.9 1.1 82
2018-12-04 20:00:00 8.3 0 Calma 4 Sudeste 0 932.6 0.9 80
2018-12-04 19:00:00 10.5 0 Calma 5 Sudoeste 0 932.3 0.5 74
2018-12-04 18:00:00 13.7 2 Sudoeste 4 Sudoeste 0 931.8 -0.2 68
2018-12-04 17:00:00 15.6 0 Calma 4 Sur 0 931.7 -0.8 59
2018-12-04 16:00:00 15.8 0 Calma 6 Este 0 931.8 -1.1 58
2018-12-04 15:00:00 15.4 3 Norte 8 Este 0 932 -1.7 61
2018-12-04 14:00:00 14.6 4 Sudeste 15 Este 0 932.5 -1.4 65
2018-12-04 13:00:00 12.7 10 Este 21 Este 0 932.9 -0.7 72
2018-12-04 12:00:00 11.6 9 Este 26 Este 0 933.7 0.5 76
2018-12-04 11:00:00 11.1 12 Este 23 Este 0 933.9 1 77
2018-12-04 10:00:00 10.3 9 Este 17 Sudeste 0 933.6 1.1 82
2018-12-04 09:00:00 9.9 5 Este 22 Sudeste 0 933.2 0.8 82
2018-12-04 08:00:00 10.3 9 Este 18 Sudeste 0 932.9 0.4 82
2018-12-04 07:00:00 10.2 6 Este 14 Este 0 932.5 -0.3 82
2018-12-04 06:00:00 10.1 4 Este 12 Este 0 932.4 -0.4 84
2018-12-04 05:00:00 10.3 5 Sudeste 8 Este 0 932.5 -0.7 83
2018-12-04 04:00:00 10.2 4 Este 7 Este 0 932.8 -0.8 83
2018-12-04 03:00:00 10.5 4 Este 10 Este 0 932.8 -1.1 82
2018-12-04 02:00:00 10.6 5 Este 10 Este 0 933.2 -0.4 82
2018-12-04 01:00:00 10.6 0 Calma 9 Este 0 933.6 0.2 82
2018-12-04 00:00:00 10.7 2 Este 10 Este 0 933.9 0.4 82
2018-12-03 23:00:00 10.8 4 Sudeste 7 Sudeste 0 933.6 0.2 81
2018-12-03 22:00:00 10.8 4 Sudeste 7 Este 0 933.4 0.3 81
2018-12-03 21:00:00 10.9 0 Calma 6 Sudeste 0 933.5 1 81
2018-12-03 20:00:00 11.2 2 Sudeste 8 Este 0 933.4 1.1 79
2018-12-03 19:00:00 11.5 2 Noroeste 12 Noroeste 0 933.1 1 77
2018-12-03 18:00:00 12.3 6 Noroeste 14 Noroeste 0 932.5 0.4 74
2018-12-03 17:00:00 13 3 Noroeste 7 Noroeste 0 932.3 -0.3 71
2018-12-03 16:00:00 13 2 Noroeste 9 Este 0 932.1 -0.7 68
2018-12-03 15:00:00 12.5 3 Noroeste 14 Noroeste 0 932.1 -1 68
2018-12-03 14:00:00 12 5 Oeste 16 Noroeste 0 932.6 -1 69
2018-12-03 13:00:00 10.6 4 Norte 14 Sudoeste 0 932.8 0.2 73
2018-12-03 12:00:00 9.5 8 Sur 14 Sur 0 933.1 1.1 75
2018-12-03 11:00:00 8.4 4 Oeste 13 Oeste 0 933.6 1.1 80
2018-12-03 10:00:00 7.5 6 Sudoeste 14 Sudoeste 0 932.6 0.2 81
2018-12-03 09:00:00 7.2 5 Sudoeste 10 Sudoeste 0 932 -0.5 83
2018-12-03 08:00:00 7 0 Calma 8 Noroeste 0 932.5 -0.2 83
2018-12-03 07:00:00 6.9 4 Norte 5 Norte 0 932.4 -0.4 83
2018-12-03 06:00:00 6.8 0 Calma 7 Oeste 0 932.5 -0.3 83
2018-12-03 05:00:00 6.8 2 Noroeste 16 Oeste 0 932.7 -0.6 82
2018-12-03 04:00:00 6.8 5 Oeste 23 Sudoeste 0 932.8 -0.7 83
2018-12-03 03:00:00 6.3 9 Sudoeste 20 Sudoeste 0 932.8 -0.6 87
2018-12-03 02:00:00 5.1 4 Este 7 Sudeste 0 933.3 0.5 87
2018-12-03 01:00:00 4.2 2 Norte 6 Este 0 933.5 0.8 87
2018-12-03 00:00:00 2.7 2 Este 5 Este 0 933.4 0.8 86
2018-12-02 23:00:00 3.1 2 Sudeste 10 Sudoeste 0 932.8 0.6 85
2018-12-02 22:00:00 3.8 0 Calma 4 Sudoeste 0 932.7 1 83
2018-12-02 21:00:00 4.8 3 Sudoeste 5 Sudoeste 0 932.6 1.1 82
2018-12-02 20:00:00 6.2 0 Calma 6 Sudoeste 0 932.2 1.2 78
2018-12-02 19:00:00 8.3 2 Este 8 Oeste 0 931.7 0.4 74
2018-12-02 18:00:00 10.4 2 Oeste 14 Oeste 0 931.5 -0.1 65
2018-12-02 17:00:00 11.9 6 Sudoeste 22 Sudoeste 0 931 -0.9 62
2018-12-02 16:00:00 11.8 8 Oeste 29 Sudoeste 0 931.3 -0.9 64
2018-12-02 15:00:00 11.2 8 Oeste 23 Oeste 0 931.6 -1.4 64
2018-12-02 14:00:00 11.4 9 Oeste 22 Oeste 0 931.9 -1.2 62
2018-12-02 13:00:00 9.7 9 Oeste 21 Oeste 0 932.2 -0.9 69
2018-12-02 12:00:00 8.2 4 Oeste 18 Sudoeste 0 933 0.2 75
2018-12-02 11:00:00 7.2 9 Sudoeste 18 Sudoeste 0 933.1 0.5 78
2018-12-02 10:00:00 6.4 12 Sudoeste 22 Oeste 0 933.1 0.7 81
2018-12-02 09:00:00 5.9 0 Calma 9 Oeste 0 932.8 0.6 85
2018-12-02 08:00:00 5.7 4 Sudoeste 10 Sudoeste 0 932.6 0.9 86
2018-12-02 07:00:00 4.9 2 Oeste 5 Oeste 0 932.4 0.3 86
2018-12-02 06:00:00 4.1 0 Calma 9 Oeste 0 932.2 0 86
2018-12-02 05:00:00 4 4 Sudoeste 8 Sudoeste 0 931.7 -0.3 84
2018-12-02 04:00:00 5 2 Este 9 Sudoeste 0 932.1 0.1 82
2018-12-02 03:00:00 5.9 3 Oeste 17 Sudoeste 0 932.2 -0.1 80
2018-12-02 02:00:00 6.7 9 Sudoeste 21 Sudoeste 0 932 -0.2 77
2018-12-02 01:00:00 7.4 15 Sudoeste 28 Sudoeste 0 932 -0.4 76
2018-12-02 00:00:00 7.8 10 Sudoeste 19 Oeste 0 932.3 0.4 75
2018-12-01 23:00:00 8 12 Sudoeste 23 Sudoeste 0 932.2 0.6 74
2018-12-01 22:00:00 8.4 14 Sudoeste 27 Sudoeste 0 932.4 0.5 73
2018-12-01 21:00:00 8.3 10 Sudoeste 23 Sudoeste 0 931.9 0.5 74
2018-12-01 20:00:00 8.5 10 Sudoeste 20 Sudoeste 0 931.6 0.5 72
2018-12-01 19:00:00 8.4 9 Sudoeste 17 Oeste 0 931.9 0.8 73
2018-12-01 18:00:00 8.8 7 Sudoeste 18 Oeste 0 931.4 0.3 70
2018-12-01 17:00:00 9.6 8 Oeste 26 Oeste 0 931.1 -0.2 67
2018-12-01 16:00:00 9.8 9 Oeste 31 Oeste 0 931.1 -1 64
2018-12-01 15:00:00 9.4 11 Oeste 33 Oeste 0 931.1 -1.3 64
2018-12-01 14:00:00 9.4 13 Sudoeste 28 Sudoeste 0 931.3 -1.5 64
2018-12-01 13:00:00 8.1 13 Sudoeste 29 Sudoeste 0 932.1 0.1 69
2018-12-01 12:00:00 7.4 13 Sudoeste 24 Sudoeste 0 932.4 0.5 71
2018-12-01 11:00:00 6.1 6 Oeste 20 Oeste 0 932.8 1.1 74
2018-12-01 10:00:00 4.8 10 Sudoeste 20 Oeste 0 932 0.4 80
2018-12-01 09:00:00 3.5 0 Calma 11 Sudoeste 0 931.9 0.5 87
2018-12-01 08:00:00 2.7 3 Sudoeste 8 Sudoeste 0 931.7 0.3 88
2018-12-01 07:00:00 2.1 0 Calma 3 Norte 0 931.6 -0.3 88
2018-12-01 06:00:00 1.4 0 Calma 6 Este 0 931.4 -0.5 87
2018-12-01 05:00:00 1.4 4 Este 13 Este 0 931.4 -1 87
2018-12-01 04:00:00 1.1 3 Este 7 Este 0 931.9 -0.1 88
2018-12-01 03:00:00 0.2 0 Calma 5 Sudeste 0 931.9 -1.2 88
2018-12-01 02:00:00 0.1 2 Sur 9 Este 0 932.4 -0.4 87
2018-12-01 01:00:00 0.2 6 Este 10 Este 0 932 -0.7 87
2018-12-01 00:00:00 -0.4 0 Calma 4 Este 0 933.1 0.5 86
2018-11-30 23:00:00 0.3 3 Este 6 Este 0 932.8 0.7 86
2018-11-30 22:00:00 1.2 0 Calma 6 Este 0 932.7 1.4 85
2018-11-30 21:00:00 2.3 2 Este 6 Sudoeste 0 932.6 1.3 83
2018-11-30 20:00:00 3.7 0 Calma 5 Sudoeste 0 932.1 1.1 84
2018-11-30 19:00:00 4.5 2 Este 4 Sudeste 0 931.3 0.4 82
2018-11-30 18:00:00 6.3 0 Calma 3 Sur 0 931.3 0.5 77
2018-11-30 17:00:00 7.7 0 Calma 10 Noroeste 0 931 0.5 71
2018-11-30 16:00:00 8.6 4 Oeste 16 Sudoeste 0 930.9 0.1 65
2018-11-30 15:00:00 8 5 Oeste 15 Oeste 0 930.8 -0.1 70
2018-11-30 14:00:00 7.1 2 Oeste 10 Noroeste 0 930.5 -0.2 77
2018-11-30 13:00:00 6.2 4 Oeste 15 Oeste 0 930.8 0.6 79
2018-11-30 12:00:00 6.1 3 Noroeste 12 Noroeste 0 930.9 1 80
2018-11-30 11:00:00 5.8 3 Oeste 9 Oeste 0 930.7 1.8 85
2018-11-30 10:00:00 4.9 3 Oeste 9 Oeste 0 930.2 2 87
2018-11-30 09:00:00 4.5 3 Oeste 13 Noroeste 0 929.9 2 87
2018-11-30 08:00:00 4.6 4 Oeste 14 Noroeste 0 928.9 1.4 87
2018-11-30 07:00:00 4.7 4 Oeste 14 Oeste 0 928.2 0.7 87
2018-11-30 06:00:00 5 7 Sudoeste 16 Oeste 0 927.9 0.6 87
2018-11-30 05:00:00 5.2 3 Sudoeste 14 Oeste 0 927.5 0.6 87
2018-11-30 04:00:00 5.4 4 Oeste 14 Oeste 0 927.5 0.2 87
2018-11-30 03:00:00 5.8 5 Oeste 13 Oeste 0 927.3 0.3 87
2018-11-30 02:00:00 5.7 0 Calma 6 Sudoeste 0 926.9 -0.1 87
2018-11-30 01:00:00 5.7 0 Calma 10 Noroeste 0 927.3 0.1 86
2018-11-30 00:00:00 5.8 2 Nordeste 6 Norte 0 927 -0.1 86
2018-11-29 23:00:00 5.8 0 Calma 9 Nordeste 0 927 -1.5 85
2018-11-29 22:00:00 5.9 4 Nordeste 8 Nordeste 0 927.2 -0.3 85
2018-11-29 21:00:00 5.8 6 Sudeste 13 Sudeste 2 927.1 0.1 85
2018-11-29 20:00:00 6.1 8 Sudoeste 16 Sudoeste 2.8 928.5 2 83
2018-11-29 19:00:00 6.9 5 Sudoeste 12 Sudoeste 3.2 927.5 0.9 79
2018-11-29 18:00:00 8.8 4 Oeste 9 Oeste 0.6 927 -0.6 70
2018-11-29 17:00:00 11.1 2 Oeste 9 Sudoeste 0 926.5 -0.6 45
2018-11-29 16:00:00 12 5 Sudoeste 26 Oeste 0 926.6 -0.7 38
2018-11-29 15:00:00 12.3 6 Sudoeste 18 Oeste 0 927.6 -0.6 35
2018-11-29 14:00:00 10.3 11 Este 21 Este 0 927.1 -1.6 42
2018-11-29 13:00:00 8.4 10 Este 28 Este 0 927.3 -2 52
2018-11-29 12:00:00 6.8 9 Este 26 Sudeste 0 928.2 -1.2 63
2018-11-29 11:00:00 3.8 8 Este 18 Este 0 928.7 -0.3 74
2018-11-29 10:00:00 0.4 9 Sudeste 22 Sudeste 0 929.3 0.5 84
2018-11-29 09:00:00 -2 8 Este 12 Este 0 929.4 0.5 86
2018-11-29 08:00:00 -2.8 6 Este 10 Este 0 929 0 85
2018-11-29 07:00:00 -2.5 4 Este 10 Este 0 928.8 -0.7 85
2018-11-29 06:00:00 -2.3 7 Sudeste 14 Este 0 928.9 -0.2 85
2018-11-29 05:00:00 -2.5 5 Sudeste 10 Este 0 929 -0.7 84
2018-11-29 04:00:00 -2.2 0 Calma 13 Sudeste 0 929.5 -0.7 83
2018-11-29 03:00:00 -1.9 7 Este 12 Sudeste 0 929.1 -1.6 83
2018-11-29 02:00:00 -1.4 6 Sudeste 12 Este 0 929.7 -1.1 83
2018-11-29 01:00:00 -1.3 5 Este 13 Este 0 930.2 -0.7 82
2018-11-29 00:00:00 -1.1 5 Este 10 Sudeste 0 930.7 0 82
2018-11-28 23:00:00 -0.4 4 Sudeste 8 Este 0 930.8 0 79
2018-11-28 22:00:00 0.8 6 Este 10 Este 0 930.9 0 77
2018-11-28 21:00:00 1.2 6 Este 10 Este 0 930.7 0 76
2018-11-28 14:00:00 11.1 5 Oeste 16 Oeste 0 932.1 -1.3 40
2018-11-28 13:00:00 8.5 3 Sudoeste 9 Sudoeste 0 932.5 -0.6 55
2018-11-28 12:00:00 5.8 0 Calma 9 Sudeste 0 933.4 0.5 65
2018-11-28 11:00:00 2.8 4 Este 12 Sudeste 0 933.4 0.8 77
2018-11-28 10:00:00 0 8 Sudeste 13 Sudeste 0 933.1 0.8 85
2018-11-28 09:00:00 -1.2 5 Sudeste 10 Sudeste 0 932.9 0.9 86
2018-11-28 08:00:00 -1.5 4 Este 13 Este 0 932.6 0.7 86
2018-11-28 07:00:00 -1.2 4 Este 10 Este 0 932.3 0.5 87
2018-11-28 06:00:00 -1.1 5 Este 10 Este 0 932 0.2 86
2018-11-28 05:00:00 -0.9 4 Este 7 Este 0 931.9 0.2 87
2018-11-28 04:00:00 -0.4 4 Este 9 Este 0 931.8 -0.4 87
2018-11-28 03:00:00 -0.6 5 Este 10 Sudeste 0 931.8 -0.3 86
2018-11-28 02:00:00 -0.3 4 Este 8 Este 0 931.7 -0.3 86
2018-11-28 01:00:00 0.3 6 Sudeste 12 Este 0 932.2 0.1 86
2018-11-28 00:00:00 0.7 5 Este 10 Este 0 932.1 0.1 86
2018-11-27 23:00:00 1.1 4 Este 8 Este 0 932 0.2 85
2018-11-27 22:00:00 1.2 3 Este 6 Este 0 932.1 0.2 84
2018-11-27 21:00:00 2.1 3 Este 6 Este 0 932 0.4 81
2018-11-27 20:00:00 3.6 0 Calma 3 Este 0 931.8 0.5 76
2018-11-27 19:00:00 5.4 0 Calma 4 Sudoeste 0 931.9 0.7 73
2018-11-27 18:00:00 7.5 0 Calma 12 Sudoeste 0 931.6 0.3 69
2018-11-27 17:00:00 9.4 7 Sudoeste 15 Sudoeste 0 931.3 -0.4 57
2018-11-27 16:00:00 10.1 6 Sudoeste 15 Sudoeste 0 931.2 -0.9 59
2018-11-27 15:00:00 9.7 5 Oeste 13 Oeste 0 931.3 -1.3 61
2018-11-27 14:00:00 9 6 Sudoeste 13 Sudoeste 0 931.7 -0.8 63
2018-11-27 13:00:00 7.2 4 Sudoeste 10 Sudoeste 0 932.1 -0.3 71
2018-11-27 12:00:00 5.2 0 Calma 9 Sudeste 0 932.6 0.6 76
2018-11-27 11:00:00 3.1 3 Sudeste 8 Sudeste 0 932.5 0.4 85
2018-11-27 10:00:00 1.2 5 Sudeste 9 Este 0 932.4 0.5 87
2018-11-27 09:00:00 -0.3 4 Este 8 Este 0 932 0.2 88
2018-11-27 08:00:00 -0.4 3 Este 8 Este 0 932.1 0.1 88
2018-11-27 07:00:00 0.1 0 Calma 4 Este 0 931.9 0 88
2018-11-27 06:00:00 0.8 0 Calma 17 Oeste 0 931.8 -0.1 87
2018-11-27 05:00:00 -0.5 5 Oeste 14 Oeste 0 932 0.1 87
2018-11-27 04:00:00 -0.9 3 Este 5 Este 0 931.9 0.5 87
2018-11-27 03:00:00 -0.6 2 Sudoeste 4 Este 0 931.9 0.8 86
2018-11-27 02:00:00 -0.1 0 Calma 12 Noroeste 0 931.9 0.9 85
2018-11-27 01:00:00 0.7 0 Calma 8 Sudoeste 0 931.4 0.6 84
2018-11-27 00:00:00 1.8 0 Calma 10 Oeste 0 931.1 1.1 82
2018-11-26 23:00:00 2.8 5 Oeste 12 Oeste 0 931 2.1 81
2018-11-26 22:00:00 3.2 5 Sudoeste 9 Sudoeste 0 930.8 2.8 79
2018-11-26 21:00:00 4.9 4 Oeste 14 Oeste 0 930 2.8 73
2018-11-26 20:00:00 6.1 6 Sudoeste 13 Oeste 0 928.9 2.4 70
2018-11-26 19:00:00 7.2 6 Oeste 19 Oeste 0 928 2.3 66
2018-11-26 18:00:00 7.9 7 Oeste 27 Noroeste 0 927.2 1.9 63
2018-11-26 17:00:00 10 10 Oeste 33 Oeste 0 926.5 1.6 54
2018-11-26 16:00:00 9.6 9 Oeste 33 Noroeste 0 925.7 0.9 58
2018-11-26 15:00:00 9.1 9 Oeste 28 Noroeste 0 925.3 0.4 60
2018-11-26 14:00:00 9.6 10 Oeste 32 Oeste 0 924.9 1.2 56
2018-11-26 13:00:00 8.4 7 Noroeste 23 Oeste 0 924.8 2.1 66
2018-11-26 12:00:00 7.3 8 Noroeste 23 Noroeste 0 924.9 3.4 71
2018-11-26 11:00:00 6.1 7 Oeste 24 Oeste 0 923.7 3.5 77
2018-11-26 10:00:00 5 5 Oeste 20 Oeste 0 922.7 3.6 83
2018-11-26 09:00:00 4.1 8 Oeste 26 Oeste 0 921.5 3.4 85
2018-11-26 08:00:00 3.7 14 Oeste 36 Oeste 0 920.2 3.1 83
2018-11-26 07:00:00 4 17 Oeste 45 Oeste 0 919.1 3.7 80
2018-11-26 06:00:00 3.9 17 Oeste 50 Oeste 0 918.1 3.8 80
2018-11-26 05:00:00 4.9 20 Oeste 65 Oeste 0 917.1 2.7 77
2018-11-26 04:00:00 6.5 21 Oeste 64 Oeste 0.2 915.4 0.9 78
2018-11-26 03:00:00 6.8 23 Sudoeste 46 Sudoeste 0 914.3 -0.9 86
2018-11-26 02:00:00 6.5 5 Sudoeste 8 Sudoeste 0.4 914.4 -2.1 87
2018-11-26 01:00:00 6.6 3 Sudeste 9 Sudoeste 0.4 914.5 -2.4 87
2018-11-26 00:00:00 6.6 4 Sur 9 Este 1.4 915.2 -2.2 87
2018-11-25 23:00:00 6.5 3 Este 6 Sudeste 1.8 916.5 -1.2 86
2018-11-25 22:00:00 6.4 2 Noroeste 6 Este 1 916.9 -0.3 85
2018-11-25 21:00:00 6.2 2 Este 4 Este 0 917.4 0 81
2018-11-25 20:00:00 5.8 0 Calma 5 Sudoeste 0 917.7 -0.1 80
2018-11-25 19:00:00 6.7 2 Sudeste 8 Sudoeste 0 917.2 -0.9 74
2018-11-25 18:00:00 8.8 4 Sudoeste 19 Oeste 0 917.4 -1.6 66
2018-11-25 17:00:00 10 9 Oeste 32 Sudoeste 0 917.8 -1.7 61
2018-11-25 16:00:00 11.2 14 Sudoeste 26 Oeste 0 918.1 -1.3 54
2018-11-25 15:00:00 11 9 Oeste 24 Oeste 0 919 -1.1 56
2018-11-25 14:00:00 10.9 8 Oeste 25 Oeste 0 919.5 -0.2 56
2018-11-25 13:00:00 10.7 10 Oeste 30 Oeste 0 919.4 0.2 57
2018-11-25 12:00:00 10.1 8 Oeste 22 Oeste 0 920.1 1.6 67
2018-11-25 11:00:00 9.6 7 Oeste 18 Oeste 0 919.7 1.9 73
2018-11-25 10:00:00 8 4 Oeste 15 Oeste 0 919.2 1.8 85
2018-11-25 09:00:00 7.7 5 Oeste 29 Oeste 0 918.5 1.2 86
2018-11-25 08:00:00 8.5 9 Oeste 22 Oeste 0 917.8 1.1 87
2018-11-25 07:00:00 8 9 Sudoeste 24 Sudoeste 0.4 917.4 0.6 86
2018-11-25 06:00:00 7.8 13 Sudoeste 29 Sudoeste 0.2 917.3 -0.8 86
2018-11-25 05:00:00 8 18 Sudoeste 46 Sudoeste 0 916.7 -1.7 82
2018-11-25 04:00:00 7.5 15 Sudoeste 29 Sudoeste 0.2 916.8 -1.9 83
2018-11-25 03:00:00 7 6 Oeste 21 Sudoeste 0.2 918.1 -1.3 84
2018-11-25 02:00:00 6.4 7 Oeste 17 Sudoeste 0.4 918.4 -1.6 85
2018-11-25 01:00:00 5.8 2 Este 9 Este 0.2 918.7 -1.9 82
2018-11-25 00:00:00 5.5 4 Este 11 Sudeste 0 919.4 -2 77
2018-11-24 23:00:00 5.5 4 Este 11 Sudeste 0 920 -1.6 77
2018-11-24 22:00:00 5.6 4 Sudeste 10 Sudeste 0 920.6 -1.3 69
2018-11-24 21:00:00 5.6 2 Sudeste 20 Sur 0 921.4 0.2 67
2018-11-24 20:00:00 6.1 10 Sur 18 Sur 0 921.6 -0.2 67
2018-11-24 19:00:00 6.2 10 Sudoeste 18 Sudoeste 0 921.9 -0.2 70
2018-11-24 18:00:00 8.4 2 Sur 14 Oeste 0 921.2 -1.8 61
2018-11-24 17:00:00 10.1 8 Sudoeste 20 Sudoeste 0 921.8 -2 52
2018-11-24 16:00:00 10.9 10 Sudoeste 24 Sudoeste 0 922.1 -2.4 49
2018-11-24 15:00:00 10.7 13 Sudoeste 26 Sudoeste 0 923 -2.1 50
2018-11-24 14:00:00 9.7 13 Sudoeste 33 Sudoeste 0 923.8 -1.4 55
2018-11-24 13:00:00 9.6 14 Sudoeste 28 Sudoeste 0 924.5 -0.6 55
2018-11-24 12:00:00 8.4 12 Sudoeste 24 Oeste 0 925.1 0.6 62
2018-11-24 11:00:00 6.9 3 Oeste 12 Sudoeste 0 925.2 0.9 71
2018-11-24 10:00:00 5.7 2 Nordeste 6 Este 0 925.1 0.9 77
2018-11-24 09:00:00 3.7 2 Oeste 5 Sudoeste 0 924.5 0.4 84
2018-11-24 08:00:00 3.1 2 Sudoeste 6 Oeste 0 924.3 -0.2 83
2018-11-24 07:00:00 3 0 Calma 7 Sudoeste 0 924.2 -0.5 81
2018-11-24 06:00:00 3.7 3 Sudoeste 9 Sudoeste 0 924.1 -0.8 79
2018-11-24 05:00:00 4.1 6 Sudoeste 13 Sudoeste 0 924.5 -0.6 78
2018-11-24 04:00:00 3.1 0 Calma 5 Noroeste 0 924.7 -0.5 80
2018-11-24 03:00:00 3.3 3 Oeste 12 Sudoeste 0 924.9 -0.2 78
2018-11-24 02:00:00 4.1 7 Sudoeste 16 Sudoeste 0 925.1 0.5 74
2018-11-24 01:00:00 4.8 7 Sudoeste 17 Sudoeste 0 925.2 0.9 75
2018-11-24 00:00:00 4.8 8 Sudoeste 19 Sudoeste 0 925.1 1.1 75
2018-11-23 23:00:00 4.2 6 Sudoeste 22 Sudoeste 0 924.6 0.9 78
2018-11-23 22:00:00 3.6 9 Sudoeste 14 Sudoeste 0 924.3 0.8 83
2018-11-23 21:00:00 3.7 2 Noroeste 8 Oeste 0 924 0.9 79
2018-11-23 20:00:00 3.5 3 Sudoeste 7 Sudoeste 0 923.7 0.8 77
2018-11-23 19:00:00 5.4 0 Calma 12 Oeste 0 923.5 0.9 70
2018-11-23 18:00:00 7.4 7 Oeste 24 Oeste 0 923.1 0.8 63
2018-11-23 17:00:00 8.5 12 Oeste 30 Sudoeste 0 922.9 0.6 59
2018-11-23 16:00:00 9.1 13 Sudoeste 37 Sudoeste 0 922.6 0 56
2018-11-23 15:00:00 8.7 12 Sudoeste 36 Oeste 0 922.3 -1 61
2018-11-23 14:00:00 9.1 15 Sudoeste 38 Sudoeste 0 922.3 -1 59
2018-11-23 13:00:00 9.2 17 Sudoeste 34 Oeste 0 922.6 -0.6 61
2018-11-23 12:00:00 8.3 15 Sudoeste 32 Sudoeste 0 923.3 0.4 68
2018-11-23 11:00:00 6.9 12 Sudoeste 26 Sudoeste 0 923.3 0.8 75
2018-11-23 10:00:00 4.7 9 Sudoeste 20 Sudoeste 0 923.2 0.9 85
2018-11-23 09:00:00 3.5 3 Oeste 12 Sudoeste 0 922.9 0.7 84
2018-11-23 08:00:00 3.8 0 Calma 11 Sudoeste 0.4 922.5 -0.2 85
2018-11-23 07:00:00 4.1 2 Nordeste 10 Sudoeste 0.6 922.3 0.1 85
2018-11-23 06:00:00 4.1 4 Sur 12 Oeste 1.2 922.2 0.6 85
2018-11-23 05:00:00 4.2 6 Oeste 29 Oeste 1.8 922.7 1 84
2018-11-23 04:00:00 5.5 6 Oeste 25 Oeste 1 922.2 0.2 86
2018-11-23 03:00:00 6 0 Calma 9 Este 0.6 921.6 -0.6 85
2018-11-23 02:00:00 6 4 Este 10 Sudeste 0.4 921.7 -1 84
2018-11-23 01:00:00 6.2 3 Este 9 Sudeste 0 922 -0.8 79
2018-11-23 00:00:00 6.3 3 Este 7 Este 0 922.2 -0.8 78
2018-11-22 23:00:00 6.6 0 Calma 5 Nordeste 0 922.7 -0.3 77
2018-11-22 22:00:00 7.2 2 Nordeste 7 Sur 0 922.8 -0.1 72
2018-11-22 21:00:00 7.4 3 Sur 9 Sur 0 923 0.2 71
2018-11-22 20:00:00 7.5 5 Sur 13 Sur 0 923 0.3 70
2018-11-22 19:00:00 8.1 6 Sur 15 Sur 0 922.9 0.6 69
2018-11-22 18:00:00 8.9 0 Calma 9 Oeste 0 922.8 0.1 70
2018-11-22 17:00:00 10.1 4 Sudoeste 18 Sudoeste 0 922.7 -0.6 59
2018-11-22 16:00:00 10.8 5 Sudoeste 18 Sudoeste 0 922.3 -1.5 55
2018-11-22 15:00:00 10.8 12 Sudoeste 23 Sudoeste 0 922.7 -1.7 55
2018-11-22 14:00:00 10.8 12 Sudoeste 28 Sudoeste 0 923.3 -1.3 55
2018-11-22 13:00:00 10.1 6 Sudoeste 19 Sudoeste 0 923.8 -0.4 58
2018-11-22 12:00:00 9.4 5 Sudoeste 13 Sudoeste 0 924.4 0.7 59
2018-11-22 11:00:00 7.5 5 Este 11 Nordeste 0 924.6 1.1 66
2018-11-22 10:00:00 5.5 6 Este 12 Nordeste 0 924.2 0.8 74
2018-11-22 09:00:00 3.4 6 Este 13 Sudeste 0 923.7 0.5 80
2018-11-22 08:00:00 3.6 5 Este 12 Nordeste 0 923.5 0.5 80
2018-11-22 07:00:00 3 4 Este 8 Este 0 923.4 0.2 81
2018-11-22 06:00:00 4.2 0 Calma 6 Sudeste 0 923.2 0.1 78
2018-11-22 05:00:00 4.4 3 Sudeste 8 Sur 0 923 -0.3 77
2018-11-22 04:00:00 4.9 0 Calma 15 Sudoeste 0 923.2 -0.2 78
2018-11-22 03:00:00 4.7 7 Sudoeste 15 Sudoeste 0 923.1 -0.2 78
2018-11-22 02:00:00 3.3 0 Calma 4 Este 0 923.3 0.2 84
2018-11-22 01:00:00 3.9 0 Calma 4 Sudeste 0 923.4 0.9 84
2018-11-22 00:00:00 3.7 0 Calma 7 Sudoeste 0 923.3 1.2 79
2018-11-21 23:00:00 5.1 4 Sudoeste 16 Sudoeste 0 923.1 1.6 76
2018-11-21 22:00:00 6 8 Sudoeste 16 Sudoeste 0 922.5 1.5 74
2018-11-21 21:00:00 5.7 5 Sur 11 Sudoeste 0 922.1 1.7 81
2018-11-21 20:00:00 5.9 0 Calma 4 Sudoeste 0 921.5 1.7 80
2018-11-21 19:00:00 6.4 2 Este 8 Noroeste 0 921 1.6 76
2018-11-21 18:00:00 7.7 4 Noroeste 18 Noroeste 0 920.4 1.6 69
2018-11-21 17:00:00 9.6 10 Sudoeste 44 Sudoeste 0 919.8 0.7 63
2018-11-21 16:00:00 10.6 18 Sudoeste 42 Sudoeste 0 919.4 0 54
2018-11-21 15:00:00 10.9 20 Sudoeste 40 Sudoeste 0 918.8 -0.6 53
2018-11-21 14:00:00 10.4 12 Sudoeste 33 Sudoeste 0 919.1 0.3 59
2018-11-21 13:00:00 9.5 12 Sudoeste 37 Sudoeste 0 919.4 1.3 67
2018-11-21 12:00:00 8.9 17 Sudoeste 40 Sudoeste 0 919.4 2.1 67
2018-11-21 11:00:00 8.9 20 Sudoeste 38 Sudoeste 0 918.8 2.1 65
2018-11-21 10:00:00 7.8 18 Sudoeste 35 Sudoeste 0 918.1 1.8 71
2018-11-21 09:00:00 5.9 11 Sudoeste 22 Sudoeste 0 917.3 1.5 78
2018-11-21 08:00:00 6.4 8 Sudoeste 16 Sudoeste 0 916.7 1.6 78
2018-11-21 07:00:00 6.8 6 Sudoeste 24 Sudoeste 0 916.3 1.5 79
2018-11-21 06:00:00 7.1 13 Sudoeste 35 Sudoeste 0 915.8 1.3 77
2018-11-21 05:00:00 7.3 17 Sudoeste 36 Sudoeste 0 915.1 0.6 80
2018-11-21 04:00:00 6.9 13 Sudoeste 30 Sudoeste 0 914.8 0.5 83
2018-11-21 03:00:00 7 14 Sudoeste 30 Sudoeste 0 914.5 0.4 80
2018-11-21 02:00:00 7.2 11 Sudoeste 28 Sudoeste 0 914.5 0.9 80
2018-11-21 01:00:00 7.3 13 Sudoeste 28 Sudoeste 0 914.3 1.5 81
2018-11-21 00:00:00 7.2 10 Sudoeste 26 Sudoeste 0 914.1 1.8 80
2018-11-20 23:00:00 7.1 15 Sudoeste 30 Sudoeste 0 913.6 1.9 78
2018-11-20 22:00:00 6.9 16 Sudoeste 30 Sudoeste 0 912.8 1.6 81
2018-11-20 21:00:00 7.3 12 Sudoeste 23 Sudoeste 0 912.3 1.8 79
2018-11-20 20:00:00 7.3 12 Sudoeste 30 Oeste 0 911.7 1.8 80
2018-11-20 19:00:00 7.2 14 Sudoeste 28 Sudoeste 0 911.2 1.8 76
2018-11-20 18:00:00 8 15 Sudoeste 34 Sudoeste 0 910.5 1.2 75
2018-11-20 17:00:00 8.6 16 Sudoeste 39 Oeste 0 909.9 1.1 74
2018-11-20 16:00:00 7.8 6 Oeste 33 Oeste 0.2 909.4 0.3 83
2018-11-20 15:00:00 7.7 12 Oeste 47 Oeste 0.4 909.3 -0.4 78
2018-11-20 14:00:00 10 12 Oeste 40 Oeste 0 908.8 -0.9 71
2018-11-20 13:00:00 10.5 19 Sudoeste 41 Sudoeste 0 909.1 -0.2 65
2018-11-20 12:00:00 9.3 22 Sudoeste 43 Sudoeste 0 909.7 1 74
2018-11-20 11:00:00 7.5 13 Sudoeste 26 Oeste 0 909.7 0.9 81
2018-11-20 10:00:00 7.2 14 Oeste 46 Oeste 0.2 909.3 0.3 82
2018-11-20 09:00:00 7.8 9 Sudoeste 19 Sudoeste 0.4 908.7 -0.5 87
2018-11-20 08:00:00 7.6 5 Oeste 15 Oeste 0.4 908.8 -0.7 86
2018-11-20 07:00:00 7.7 9 Oeste 27 Sudoeste 2.4 909 -1 85
2018-11-20 06:00:00 8.3 8 Sudoeste 21 Oeste 0 909.2 -1.1 83
2018-11-20 05:00:00 8.3 9 Oeste 18 Oeste 0 909.5 -1.2 84
2018-11-20 04:00:00 8.2 8 Oeste 22 Oeste 0 910 -1.1 84
2018-11-20 03:00:00 8.1 6 Sudoeste 17 Oeste 0 910.3 -1 82
2018-11-20 02:00:00 8.2 5 Sudoeste 11 Oeste 0 910.7 -0.9 81
2018-11-20 01:00:00 8.4 4 Oeste 14 Sudoeste 0 911.1 -0.7 81
2018-11-20 00:00:00 8.3 7 Sudoeste 13 Sudoeste 0 911.3 -0.6 81
2018-11-19 23:00:00 8 3 Oeste 5 Oeste 0 911.6 -0.3 83
2018-11-19 22:00:00 8.1 2 Sudoeste 4 Sudoeste 0 911.8 0 82
2018-11-19 21:00:00 8.4 0 Calma 5 Oeste 0 911.9 0.2 80
2018-11-19 20:00:00 9.2 4 Sudoeste 6 Sudoeste 0 911.9 0.1 76
2018-11-19 19:00:00 9.6 0 Calma 10 Noroeste 0 911.8 0.1 70
2018-11-19 18:00:00 10.3 7 Noroeste 15 Noroeste 0 911.7 -0.1 65
2018-11-19 17:00:00 11.1 4 Noroeste 9 Noroeste 0 911.8 -0.6 63
2018-11-19 16:00:00 11.5 4 Norte 7 Norte 0 911.7 -1.4 57
2018-11-19 15:00:00 11.1 2 Nordeste 14 Nordeste 0 911.8 -1.9 61
2018-11-19 14:00:00 10.7 4 Noroeste 15 Norte 0 912.4 -1.5 62
2018-11-19 13:00:00 10.1 6 Este 19 Este 0 913.1 -0.9 68
2018-11-19 12:00:00 9.5 9 Este 24 Este 0 913.7 -0.3 69
2018-11-19 11:00:00 8.8 12 Este 24 Este 0 913.9 0.2 72
2018-11-19 10:00:00 8.1 11 Este 27 Este 0 914 0.4 77
2018-11-19 09:00:00 7.4 11 Este 23 Sudeste 0 914 0.4 79
2018-11-19 08:00:00 7.2 9 Este 22 Este 0 913.7 0.3 80
2018-11-19 07:00:00 7 7 Este 19 Este 0 913.6 -0.2 82
2018-11-19 06:00:00 7.4 8 Este 28 Este 0 913.6 -0.5 80
2018-11-19 05:00:00 7.6 13 Este 28 Este 0 913.4 -1 80
2018-11-19 04:00:00 7.6 10 Este 29 Sudeste 0 913.8 -0.9 80
2018-11-19 03:00:00 8 15 Este 37 Este 0 914.1 -0.6 79
2018-11-19 02:00:00 8 16 Este 40 Este 0 914.4 -0.4 80
2018-11-19 01:00:00 8.1 14 Este 37 Este 0 914.7 0.2 80
2018-11-19 00:00:00 8.2 16 Este 44 Sudeste 0 914.7 0.6 81
2018-11-18 23:00:00 8.1 16 Este 45 Este 0.4 914.8 0.8 82
2018-11-18 22:00:00 8.4 18 Este 50 Este 0 914.5 0.6 81
2018-11-18 21:00:00 8.5 15 Este 38 Este 0 914.1 0.4 79
2018-11-18 20:00:00 8.7 14 Este 41 Este 0 914 0.5 76
2018-11-18 19:00:00 10.5 20 Este 38 Este 0 913.9 0 71
2018-11-18 18:00:00 11.1 15 Este 32 Este 0 913.7 -0.2 68
2018-11-18 17:00:00 11.5 13 Este 27 Sudeste 0 913.5 -0.8 64
2018-11-18 16:00:00 12.1 17 Sudeste 29 Sudeste 0 913.9 -1.1 62
2018-11-18 15:00:00 12.9 12 Este 36 Sudeste 0 913.9 -2.1 59
2018-11-18 14:00:00 13.3 5 Sur 22 Sudeste 0 914.3 -2.2 62
2018-11-18 13:00:00 12.5 13 Este 30 Este 0 915 -1.9 63
2018-11-18 12:00:00 10.6 12 Este 31 Este 0 916 -0.8 72
2018-11-18 11:00:00 8.9 8 Este 19 Este 0 916.5 -0.3 81
2018-11-18 10:00:00 6.6 8 Este 15 Este 0 916.9 -0.2 84
2018-11-18 09:00:00 5.7 5 Este 14 Este 0 916.8 -0.4 86
2018-11-18 08:00:00 4.9 5 Este 10 Este 0 916.8 -1.1 87
2018-11-18 07:00:00 5 6 Este 15 Este 0 917.1 -1.3 86
2018-11-18 06:00:00 3.8 3 Este 10 Este 0 917.2 -1.8 87
2018-11-18 05:00:00 4.2 4 Este 10 Este 0 917.9 -1.6 87
2018-11-18 04:00:00 4.5 5 Este 11 Este 0 918.4 -1.8 87
2018-11-18 03:00:00 4.8 4 Este 9 Este 0 919 -1.6 86
2018-11-18 02:00:00 5.2 3 Este 9 Este 0 919.5 -1.4 86
2018-11-18 01:00:00 5.1 4 Este 8 Este 0 920.2 -1.1 85
2018-11-18 00:00:00 5.8 3 Este 12 Nordeste 0 920.6 -0.9 85
2018-11-17 23:00:00 6.3 4 Este 7 Sudeste 0 920.9 -0.8 85
2018-11-17 22:00:00 6.8 2 Sudeste 8 Este 0 921.3 -0.8 82
2018-11-17 21:00:00 8 0 Calma 3 Sudeste 0 921.5 -0.6 79
2018-11-17 20:00:00 10.3 0 Calma 3 Este 0 921.7 -0.7 75
2018-11-17 19:00:00 12.1 0 Calma 6 Nordeste 0 922.1 -0.6 72
2018-11-17 18:00:00 13.2 0 Calma 5 Sudoeste 0 922.1 -1 66
2018-11-17 17:00:00 14.8 2 Noroeste 9 Oeste 0 922.4 -1.3 54
2018-11-17 16:00:00 16.5 5 Oeste 14 Sudoeste 0 922.7 -1.9 48
2018-11-17 15:00:00 15.2 2 Nordeste 19 Este 0 923.1 -2.3 51
2018-11-17 14:00:00 15 6 Sudeste 14 Este 0 923.7 -2.1 57
2018-11-17 13:00:00 13.7 7 Este 17 Sudeste 0 924.6 -1.4 64
2018-11-17 12:00:00 11.9 8 Este 19 Este 0 925.4 -0.8 72
2018-11-17 11:00:00 10.3 9 Este 25 Sudeste 0 925.8 -0.4 79
2018-11-17 10:00:00 8.7 12 Este 28 Este 0 926 0 84
2018-11-17 09:00:00 7.7 11 Este 24 Este 0 926.2 0 88
2018-11-17 08:00:00 6.7 8 Este 18 Este 0 926.2 -0.2 88
2018-11-17 07:00:00 6.8 6 Este 15 Este 0 926 -0.5 89
2018-11-17 06:00:00 5.8 5 Sudeste 9 Sudeste 0 926.2 -0.5 87
2018-11-17 05:00:00 6.1 4 Sudeste 8 Sudeste 0 926.4 -0.4 86
2018-11-17 04:00:00 7.5 5 Sudeste 17 Este 0 926.5 -0.4 85
2018-11-17 03:00:00 8.3 5 Este 21 Este 0 926.7 -0.3 85
2018-11-17 02:00:00 8.8 9 Este 30 Este 0 926.8 -0.4 85
2018-11-17 01:00:00 9.2 12 Este 21 Este 0 926.9 -0.4 84
2018-11-17 00:00:00 9.8 7 Este 16 Este 0 927 0 84
2018-11-16 23:00:00 10.4 8 Este 17 Este 0 927.2 0.1 85
2018-11-16 22:00:00 9 0 Calma 11 Sudeste 0 927.3 0.3 85
2018-11-16 21:00:00 9.8 7 Este 14 Este 0 927 0.1 85
2018-11-16 20:00:00 9.8 6 Este 9 Este 0 927.1 0.2 84
2018-11-16 19:00:00 10.9 4 Este 7 Este 0 927 0 84
2018-11-16 18:00:00 12.7 0 Calma 8 Sur 0 926.9 -0.6 83
2018-11-16 17:00:00 13.3 4 Sur 11 Sur 0 926.9 -0.8 80
2018-11-16 16:00:00 13.3 2 Nordeste 4 Este 0 927 -1.1 79
2018-11-16 15:00:00 11.4 2 Norte 28 Este 8.6 927.5 -1.1 79
2018-11-16 14:00:00 15 6 Sudeste 22 Este 0 927.7 -1.2 66
2018-11-16 13:00:00 15.4 9 Este 22 Sudeste 0 928.1 -0.6 59
2018-11-16 12:00:00 14.6 9 Nordeste 22 Este 0 928.6 0.1 64
2018-11-16 11:00:00 12.3 13 Este 33 Este 0 928.9 0.4 72
2018-11-16 10:00:00 10.8 14 Este 26 Sudeste 0 928.7 0.3 80
2018-11-16 09:00:00 9.3 8 Este 18 Este 0 928.5 0.2 83
2018-11-16 08:00:00 9.4 10 Sudeste 22 Sudeste 0 928.5 0.3 82
2018-11-16 07:00:00 9.5 12 Este 24 Este 0 928.4 -0.1 83
2018-11-16 06:00:00 9.2 10 Este 21 Este 0 928.3 -0.4 83
2018-11-16 05:00:00 9.8 7 Este 26 Este 0 928.2 -0.8 81
2018-11-16 04:00:00 10.5 9 Este 21 Nordeste 0 928.5 -0.5 80
2018-11-16 03:00:00 10.7 12 Este 27 Este 0 928.7 -0.5 79
2018-11-16 02:00:00 10.5 8 Este 21 Este 0 929 -0.1 80
2018-11-16 01:00:00 10.8 10 Este 24 Este 0 929 0.3 79
2018-11-16 00:00:00 10 9 Este 19 Este 0 929.2 0.8 84
2018-11-15 23:00:00 7.9 3 Este 8 Este 0 929.1 0.7 83
2018-11-15 22:00:00 9.2 4 Sudeste 12 Este 0 928.7 1.2 79
2018-11-15 21:00:00 10.5 6 Este 13 Este 0 928.4 1.1 76
2018-11-15 20:00:00 10.7 3 Este 8 Sudeste 0 928.4 1.2 75
2018-11-15 19:00:00 12.4 5 Sudeste 13 Sudeste 0 927.5 0.4 68
2018-11-15 18:00:00 13.8 6 Este 19 Sudeste 0 927.3 0.1 61
2018-11-15 17:00:00 14.9 9 Este 22 Sudeste 0 927.2 -0.5 56
2018-11-15 16:00:00 15.3 10 Este 22 Sudeste 0 927.1 -0.9 53
2018-11-15 15:00:00 14.9 12 Este 26 Sudeste 0 927.2 -1.4 59
2018-11-15 14:00:00 14.7 13 Este 27 Este 0 927.7 -0.9 62
2018-11-15 13:00:00 15.3 10 Este 21 Este 0 928 -0.4 61
2018-11-15 12:00:00 13 12 Este 31 Este 0 928.6 0.6 70
2018-11-15 11:00:00 11.8 12 Este 26 Sudeste 0 928.6 1 75
2018-11-15 10:00:00 10.2 11 Este 26 Este 0 928.4 0.9 81
2018-11-15 09:00:00 9.7 12 Este 21 Este 0 928 0.7 83
2018-11-15 08:00:00 8.4 6 Este 17 Sudeste 0 927.6 0.4 86
2018-11-15 07:00:00 8 6 Este 21 Este 0 927.5 0.2 85
2018-11-15 06:00:00 9.1 10 Este 24 Sudeste 0 927.3 -0.3 83
2018-11-15 05:00:00 9.5 10 Este 25 Este 0 927.2 -0.6 84
2018-11-15 04:00:00 9.4 5 Nordeste 19 Este 0 927.3 -0.6 84
2018-11-15 03:00:00 9.7 8 Este 18 Este 0 927.6 -0.8 85
2018-11-15 02:00:00 10.3 5 Este 18 Este 0 927.8 -1 83
2018-11-15 01:00:00 10.4 8 Este 18 Este 0 927.9 -1.2 87
2018-11-15 00:00:00 7.9 3 Este 11 Este 0 928.4 -0.7 86
2018-11-14 23:00:00 7.5 6 Sudeste 13 Este 0 928.8 -0.4 84
2018-11-14 22:00:00 8.1 4 Sudeste 11 Este 0 929.1 0 82
2018-11-14 21:00:00 9.1 6 Este 14 Este 0 929.1 0.2 78
2018-11-14 20:00:00 9.5 3 Sudeste 9 Sudeste 0 929.2 0.1 75
2018-11-14 19:00:00 11.1 5 Sudeste 9 Sudeste 0 929.1 -0.2 71
2018-11-14 18:00:00 14.1 3 Sur 13 Sur 0 928.9 -0.6 62
2018-11-14 17:00:00 15.2 3 Sudeste 20 Sudeste 0 929.1 -0.9 61
2018-11-14 16:00:00 15.9 6 Sudeste 19 Este 0 929.3 -1.4 59
2018-11-14 15:00:00 14.9 9 Sudeste 24 Este 0 929.5 -2.1 62
2018-11-14 14:00:00 14.1 12 Este 29 Este 0 930 -2.1 65
2018-11-14 13:00:00 12.9 15 Este 32 Este 0 930.7 -1.5 69
2018-11-14 12:00:00 11.4 16 Este 32 Este 0 931.6 -0.5 74
2018-11-14 11:00:00 10.6 16 Este 33 Este 0 932.1 0.2 76
2018-11-14 10:00:00 9.8 15 Este 33 Este 0 932.2 0.3 79
2018-11-14 09:00:00 9.2 14 Este 34 Sudeste 0 932.1 -0.1 82
2018-11-14 08:00:00 9.1 14 Este 38 Este 0 931.9 -0.6 83
2018-11-14 07:00:00 9.4 13 Este 31 Este 0 931.9 -0.9 83
2018-11-14 06:00:00 9.4 15 Este 34 Sudeste 0 932.2 -1 83
2018-11-14 05:00:00 9.3 12 Este 24 Este 0 932.5 -0.8 84
2018-11-14 04:00:00 8.5 7 Este 17 Sudeste 0 932.8 -1 87
2018-11-14 03:00:00 7 8 Este 18 Este 0 933.2 -0.8 86
2018-11-14 02:00:00 7.6 9 Este 24 Este 0 933.3 -0.7 85
2018-11-14 01:00:00 8.2 10 Este 26 Nordeste 0 933.8 -0.2 83
2018-11-14 00:00:00 8.7 10 Este 26 Este 0 934 0.1 81
2018-11-13 23:00:00 9.2 12 Este 25 Este 0 934 0.2 80
2018-11-13 22:00:00 9.6 8 Este 22 Este 0 934 0.6 79
2018-11-13 21:00:00 10.6 9 Este 20 Este 0 933.9 1 76
2018-11-13 20:00:00 11.9 10 Este 21 Nordeste 0 933.8 1.1 73
2018-11-13 19:00:00 11.1 5 Nordeste 12 Este 0 933.4 1.1 76
2018-11-13 18:00:00 14 2 Este 14 Este 0 932.9 0.4 67
2018-11-13 17:00:00 15.2 7 Este 21 Sudeste 0 932.7 -0.3 59
2018-11-13 16:00:00 15.1 10 Este 28 Este 0 932.3 -1.4 60
2018-11-13 15:00:00 14.4 12 Este 27 Sudeste 0 932.5 -1.6 63
2018-11-13 14:00:00 13.6 14 Este 26 Este 0 933 -1.2 68
2018-11-13 13:00:00 12.4 11 Este 26 Sudeste 0 933.7 -0.1 74
2018-11-13 12:00:00 10.2 10 Este 21 Este 0 934.1 0.8 86
2018-11-13 11:00:00 7.6 2 Norte 8 Norte 0 934.2 1.5 89
2018-11-13 10:00:00 6.8 3 Nordeste 8 Este 0 933.8 1.8 89
2018-11-13 09:00:00 4.1 3 Este 6 Este 0 933.3 1.8 88
2018-11-13 08:00:00 4.4 0 Calma 5 Oeste 0 932.7 1.6 87
2018-11-13 07:00:00 4.4 2 Sudoeste 5 Sudoeste 0 932 1 87
2018-11-13 06:00:00 4.5 3 Sudoeste 4 Sudoeste 0 931.5 0.5 86
2018-11-13 05:00:00 5.4 2 Sudoeste 3 Sudoeste 0 931.1 0.4 86
2018-11-13 04:00:00 6.4 3 Este 4 Este 0 931 0.4 87
2018-11-13 03:00:00 7.6 2 Noroeste 5 Sudeste 0 931 0.6 87
2018-11-13 02:00:00 7.8 2 Este 6 Sudeste 0 930.7 0.9 87
2018-11-13 01:00:00 8.3 3 Este 4 Este 0 930.6 1.3 86
2018-11-13 00:00:00 8.6 0 Calma 4 Sudoeste 0 930.4 1.7 86
2018-11-12 23:00:00 8.8 0 Calma 4 Sudoeste 0 929.8 1.7 85
2018-11-12 22:00:00 9.1 0 Calma 5 Sudoeste 0 929.3 2 83
2018-11-12 21:00:00 9.7 2 Sudoeste 5 Noroeste 0 928.7 2.3 83
2018-11-12 20:00:00 10.6 0 Calma 9 Oeste 0 928.1 2.6 80
2018-11-12 19:00:00 11.2 2 Oeste 8 Sudoeste 0 927.3 2.4 76
2018-11-12 18:00:00 12.1 2 Sudeste 10 Este 0 926.4 1.4 77
2018-11-12 17:00:00 12.6 5 Nordeste 10 Nordeste 0 925.5 0.5 73
2018-11-12 16:00:00 13.3 4 Este 15 Este 0 924.9 -0.3 65
2018-11-12 15:00:00 12.6 5 Este 16 Este 0 925 -0.7 74
2018-11-12 14:00:00 11.8 8 Este 19 Sudeste 0 925 -0.5 76
2018-11-12 13:00:00 11 6 Este 13 Sudeste 0 925.2 0.2 78
2018-11-12 12:00:00 10.5 7 Este 18 Sudeste 0 925.7 1.6 79
2018-11-12 11:00:00 9.9 7 Este 14 Este 0.6 925.5 2.1 84
2018-11-12 10:00:00 9.5 3 Nordeste 8 Nordeste 0 925 1.9 84
2018-11-12 09:00:00 8.9 3 Este 6 Sudeste 0 924.1 1.9 85
2018-11-12 08:00:00 8.7 2 Este 4 Este 0 923.4 2.2 85
2018-11-12 07:00:00 8.8 2 Oeste 13 Oeste 0 923.1 2.4 84
2018-11-12 06:00:00 8.6 2 Oeste 5 Este 0 922.2 1.6 85
2018-11-12 05:00:00 8.7 4 Este 8 Sudeste 0 921.2 0 83
2018-11-12 04:00:00 8.6 6 Este 15 Sudeste 0 920.7 -0.4 84
2018-11-12 03:00:00 8.7 7 Sudeste 15 Este 0 920.6 1.1 84
2018-11-12 02:00:00 9.3 0 Calma 22 Oeste 0 921.2 2 80
2018-11-12 01:00:00 10.2 10 Sudoeste 28 Sudoeste 0 921.1 2 78
2018-11-12 00:00:00 12.4 7 Sur 24 Sur 0 919.5 0.4 66
2018-11-11 23:00:00 12.1 8 Sur 27 Sur 0 919.2 -0.3 68
2018-11-11 22:00:00 12 8 Sur 22 Sur 0 919.1 -0.4 70
2018-11-11 21:00:00 11.5 6 Sudeste 27 Sur 0 919.1 -0.4 73
2018-11-11 20:00:00 11.2 6 Sudeste 19 Sudeste 0 919.5 -0.3 74
2018-11-11 19:00:00 11.5 7 Sur 19 Sur 0 919.5 -0.6 74
2018-11-11 18:00:00 11.6 6 Sur 17 Sur 0 919.5 -1.1 79
2018-11-11 17:00:00 11.7 4 Este 8 Este 0.4 919.8 -1.3 85
2018-11-11 16:00:00 12 4 Este 13 Sudeste 0.2 920.1 -1.5 83
2018-11-11 15:00:00 12.4 5 Este 12 Sudeste 0.2 920.6 -1.9 80
2018-11-11 14:00:00 12.9 4 Sudeste 13 Sur 0 921.1 -2.1 75
2018-11-11 13:00:00 13.6 3 Sudeste 13 Sudeste 0 921.6 -1.7 73
2018-11-11 12:00:00 12.6 6 Este 12 Este 0 922.5 -0.7 80
2018-11-11 11:00:00 11 6 Este 14 Este 0 923.2 0.6 83
2018-11-11 10:00:00 10.3 5 Sudeste 13 Sudeste 0 923.3 1.2 84
2018-11-11 09:00:00 8.9 0 Calma 5 Norte 0 923.2 0.8 86
2018-11-11 08:00:00 8.9 0 Calma 8 Sur 0 922.6 0.4 84
2018-11-11 07:00:00 9.7 2 Sur 16 Sudoeste 0 922.1 -0.1 81
2018-11-11 06:00:00 10.4 10 Sudoeste 30 Sudoeste 0 922.4 0.3 81
2018-11-11 05:00:00 9.4 2 Este 9 Sudeste 0.2 922.2 -0.4 87
2018-11-11 04:00:00 9.2 0 Calma 5 Norte 0 922.2 -1 86
2018-11-11 03:00:00 8.9 2 Este 7 Nordeste 0 922.1 -1.3 85
2018-11-11 02:00:00 8.4 3 Oeste 10 Sudoeste 0 922.6 -0.7 83
2018-11-11 01:00:00 8.5 6 Sudoeste 13 Sudoeste 0 923.2 0.2 80
2018-11-11 00:00:00 8.9 6 Sudoeste 17 Sudoeste 0 923.4 0.6 79
2018-11-10 23:00:00 9.7 6 Sudoeste 21 Sudoeste 0 923.3 1.3 78
2018-11-10 22:00:00 10.3 6 Sudoeste 22 Sudoeste 0 923 1.3 79
2018-11-10 21:00:00 10.9 10 Sudoeste 26 Sudoeste 0 922.8 1.5 79
2018-11-10 20:00:00 11.3 9 Sudoeste 24 Oeste 0 922 1.1 79
2018-11-10 19:00:00 11.6 9 Sudoeste 36 Oeste 0 921.7 1 78
2018-11-10 18:00:00 11.9 15 Oeste 37 Oeste 0 921.3 0.6 76
2018-11-10 17:00:00 12.2 14 Sudoeste 51 Oeste 0 920.9 0.2 77
2018-11-10 16:00:00 11.8 13 Sudoeste 35 Sudoeste 1.6 920.7 0 85
2018-11-10 15:00:00 11.8 8 Oeste 33 Oeste 0.2 920.7 -0.8 83
2018-11-10 14:00:00 11.8 12 Oeste 40 Oeste 0.2 920.7 -0.8 80
2018-11-10 13:00:00 13.2 14 Oeste 43 Oeste 0 920.7 -0.4 72
2018-11-10 12:00:00 12.7 10 Oeste 45 Sudoeste 0 921.5 1 77
2018-11-10 11:00:00 12.4 18 Sudoeste 43 Sudoeste 0 921.5 1.1 74
2018-11-10 10:00:00 12.5 12 Sudoeste 39 Sudoeste 0 921.1 0.4 67
2018-11-10 09:00:00 11.9 22 Sudoeste 44 Sudoeste 0 920.5 -0.6 67
2018-11-10 08:00:00 11.4 13 Sudoeste 40 Sudoeste 0 920.4 -0.9 68
2018-11-10 07:00:00 12.1 20 Sudoeste 43 Sudoeste 0 920.7 -1.5 64
2018-11-10 06:00:00 11.9 17 Sudoeste 37 Sudoeste 0 921.1 -2.1 63
2018-11-10 05:00:00 11.3 12 Sudoeste 33 Sudoeste 0 921.3 -2.4 66
2018-11-10 04:00:00 10.5 12 Sudoeste 29 Sudoeste 0 922.2 -2.2 70
2018-11-10 03:00:00 10.3 7 Sudoeste 23 Sudoeste 0 923.2 -1.7 71
2018-11-10 02:00:00 10.2 15 Sudoeste 30 Sudoeste 0 923.7 -1.5 72
2018-11-10 01:00:00 10.1 12 Sudoeste 36 Sudoeste 0 924.4 -1.2 72
2018-11-10 00:00:00 9.8 15 Sudoeste 39 Sudoeste 0 924.9 -1 72
2018-11-09 23:00:00 9.3 11 Sudoeste 32 Sudoeste 0 925.2 -1.3 73
2018-11-09 22:00:00 8.8 9 Sudoeste 31 Sudoeste 0 925.6 -0.9 72
2018-11-09 21:00:00 8.5 14 Sudoeste 31 Sudoeste 0 925.9 -0.8 71
2018-11-09 20:00:00 8.1 6 Sudoeste 16 Sudoeste 0 926.5 -0.5 73
2018-11-09 19:00:00 8 6 Sudoeste 16 Sudoeste 0 926.5 -0.3 73
2018-11-09 18:00:00 8 6 Sudoeste 26 Sudoeste 0 926.7 -0.4 72
2018-11-09 17:00:00 8.7 10 Sudoeste 35 Sudoeste 0 927 -0.8 65
2018-11-09 16:00:00 8.9 7 Sudoeste 32 Oeste 0 926.8 -1.6 60
2018-11-09 15:00:00 8.9 12 Sudoeste 30 Oeste 0 927.1 -1.6 59
2018-11-09 14:00:00 8.8 11 Sudoeste 31 Oeste 0 927.8 -0.8 61
2018-11-09 13:00:00 7.8 8 Sudoeste 29 Sudoeste 0 928.4 -0.4 66
2018-11-09 12:00:00 6.7 7 Oeste 26 Oeste 0 928.7 0.6 70
2018-11-09 11:00:00 5.6 10 Sudoeste 26 Oeste 0 928.6 1 75
2018-11-09 10:00:00 5.4 6 Oeste 21 Oeste 0 928.8 2.1 78
2018-11-09 09:00:00 5 8 Oeste 22 Oeste 0 928.1 1.7 81
2018-11-09 08:00:00 4.8 6 Oeste 26 Oeste 0 927.6 1.6 82
2018-11-09 07:00:00 4.8 6 Oeste 18 Oeste 0 926.7 1.3 82
2018-11-09 06:00:00 4.6 6 Sudoeste 21 Oeste 0 926.4 1.7 82
2018-11-09 05:00:00 4.7 5 Oeste 26 Oeste 0 926 1.8 81
2018-11-09 04:00:00 4.9 8 Oeste 30 Sudoeste 0 925.4 1.4 81
2018-11-09 03:00:00 5.3 10 Sudoeste 30 Oeste 0 924.7 0.5 81
2018-11-09 02:00:00 5.4 7 Oeste 22 Oeste 0 924.2 0.7 83
2018-11-09 01:00:00 5.5 8 Sudoeste 23 Oeste 0 924 0.6 84
2018-11-09 00:00:00 5.5 5 Sudoeste 13 Sudoeste 0 924.2 1.5 86